createdAt,value
2023-01-28T00:02:02.758Z,78.78
2023-01-28T00:04:30.548Z,78.41
2023-01-28T00:06:58.284Z,78.38
2023-01-28T00:09:25.589Z,78.60
2023-01-28T00:11:53.071Z,78.20
2023-01-28T00:14:21.778Z,78.12
2023-01-28T00:16:49.076Z,77.97
2023-01-28T00:19:16.520Z,78.11
2023-01-28T00:21:43.844Z,78.32
2023-01-28T00:24:11.443Z,77.98
2023-01-28T00:26:38.825Z,78.25
2023-01-28T00:29:06.664Z,78.21
2023-01-28T00:31:35.378Z,78.01
2023-01-28T00:34:02.832Z,78.25
2023-01-28T00:36:30.245Z,77.91
2023-01-28T00:38:59.025Z,77.94
2023-01-28T00:41:29.153Z,78.98
2023-01-28T00:43:58.915Z,79.13
2023-01-28T00:46:28.990Z,79.16
2023-01-28T00:48:56.272Z,79.44
2023-01-28T00:51:24.622Z,77.92
2023-01-28T00:53:54.004Z,78.05
2023-01-28T00:56:21.582Z,76.76
2023-01-28T00:58:49.794Z,77.67
2023-01-28T01:01:22.954Z,77.56
2023-01-28T01:03:57.573Z,76.95
2023-01-28T01:06:25.580Z,76.95
2023-01-28T01:08:52.887Z,77.43
2023-01-28T01:11:20.298Z,76.90
2023-01-28T01:13:58.434Z,77.54
2023-01-28T01:16:28.070Z,76.64
2023-01-28T01:18:56.064Z,77.05
2023-01-28T01:21:25.858Z,75.95
2023-01-28T01:23:53.927Z,75.98
2023-01-28T01:26:22.624Z,76.19
2023-01-28T01:28:51.684Z,77.19
2023-01-28T01:31:20.671Z,77.53
2023-01-28T01:33:50.127Z,77.09
2023-01-28T01:36:19.978Z,77.70
2023-01-28T01:38:47.812Z,77.99
2023-01-28T01:41:23.928Z,76.78
2023-01-28T01:44:02.951Z,77.00
2023-01-28T01:46:37.843Z,76.49
2023-01-28T01:49:28.602Z,76.87
2023-01-28T01:52:03.795Z,77.40
2023-01-28T01:54:32.374Z,77.29
2023-01-28T01:56:59.972Z,77.87
2023-01-28T01:59:32.111Z,77.38
2023-01-28T02:02:01.792Z,76.99
2023-01-28T02:04:32.573Z,76.15
2023-01-28T02:07:00.782Z,76.39
2023-01-28T02:09:30.826Z,76.53
2023-01-28T02:11:59.341Z,76.32
2023-01-28T02:14:31.358Z,76.12
2023-01-28T02:17:00.961Z,76.91
2023-01-28T02:19:36.213Z,76.54
2023-01-28T02:22:27.528Z,76.74
2023-01-28T02:25:09.468Z,77.29
2023-01-28T02:27:57.698Z,76.80
2023-01-28T02:30:29.890Z,76.62
2023-01-28T02:33:06.929Z,76.22
2023-01-28T02:35:39.889Z,75.97
2023-01-28T02:38:11.687Z,76.61
2023-01-28T02:41:01.086Z,77.03
2023-01-28T02:43:43.716Z,77.44
2023-01-28T02:46:35.747Z,77.01
2023-01-28T02:49:05.546Z,76.85
2023-01-28T02:51:47.460Z,75.96
2023-01-28T02:54:41.186Z,76.57
2023-01-28T02:57:19.410Z,76.27
2023-01-28T03:00:08.915Z,76.22
2023-01-28T03:02:58.155Z,76.97
2023-01-28T03:05:25.509Z,76.79
2023-01-28T03:07:53.056Z,77.09
2023-01-28T03:10:23.176Z,76.45
2023-01-28T03:13:13.339Z,76.24
2023-01-28T03:16:07.057Z,76.10
2023-01-28T03:19:02.078Z,76.32
2023-01-28T03:21:55.786Z,76.63
2023-01-28T03:24:48.835Z,76.31
2023-01-28T03:27:44.490Z,75.81
2023-01-28T03:30:37.053Z,76.47
2023-01-28T03:33:28.405Z,75.94
2023-01-28T03:36:14.245Z,75.82
2023-01-28T03:38:42.723Z,75.79
2023-01-28T03:41:13.052Z,75.79
2023-01-28T03:43:41.934Z,76.17
2023-01-28T03:46:09.472Z,75.37
2023-01-28T03:48:37.460Z,75.92
2023-01-28T03:51:07.419Z,76.48
2023-01-28T03:53:36.308Z,76.66
2023-01-28T03:56:03.638Z,76.08
2023-01-28T03:58:46.249Z,75.80
2023-01-28T04:01:14.793Z,76.35
2023-01-28T04:03:43.271Z,76.69
2023-01-28T04:06:15.370Z,75.90
2023-01-28T04:09:01.305Z,74.84
2023-01-28T04:11:50.584Z,75.00
2023-01-28T04:14:24.291Z,75.80
2023-01-28T04:16:55.582Z,76.10
2023-01-28T04:19:25.755Z,75.47
2023-01-28T04:21:57.023Z,75.47
2023-01-28T04:24:25.812Z,75.63
2023-01-28T04:26:56.217Z,75.90
2023-01-28T04:29:23.844Z,75.05
2023-01-28T04:31:52.592Z,75.27
2023-01-28T04:34:34.673Z,74.76
2023-01-28T04:37:14.598Z,73.54
2023-01-28T04:40:09.523Z,74.31
2023-01-28T04:43:02.971Z,74.39
2023-01-28T04:45:49.894Z,74.30
2023-01-28T04:48:32.398Z,74.90
2023-01-28T04:51:28.601Z,74.22
2023-01-28T04:54:18.407Z,74.81
2023-01-28T04:56:45.712Z,75.25
2023-01-28T04:59:13.048Z,74.20
2023-01-28T05:01:40.394Z,74.76
2023-01-28T05:04:08.661Z,75.14
2023-01-28T05:06:38.758Z,73.36
2023-01-28T05:09:16.210Z,73.79
2023-01-28T05:11:44.139Z,73.72
2023-01-28T05:14:12.056Z,73.97
2023-01-28T05:16:43.927Z,73.76
2023-01-28T05:19:12.185Z,74.48
2023-01-28T05:21:42.407Z,73.78
2023-01-28T05:24:26.450Z,74.00
2023-01-28T05:26:54.170Z,75.12
2023-01-28T05:29:21.390Z,75.15
2023-01-28T05:31:49.015Z,74.60
2023-01-28T05:34:16.906Z,74.53
2023-01-28T05:36:44.750Z,74.08
2023-01-28T05:39:44.282Z,74.11
2023-01-28T05:42:11.749Z,73.59
2023-01-28T05:44:44.793Z,74.10
2023-01-28T05:47:39.287Z,73.54
2023-01-28T05:50:24.761Z,74.29
2023-01-28T05:53:21.461Z,73.85
2023-01-28T05:55:51.819Z,73.94
2023-01-28T05:58:20.237Z,74.20
2023-01-28T06:00:47.632Z,74.71
2023-01-28T06:03:17.925Z,74.82
2023-01-28T06:05:45.267Z,74.14
2023-01-28T06:08:12.491Z,74.39
2023-01-28T06:10:39.960Z,74.75
2023-01-28T06:13:07.472Z,74.77
2023-01-28T06:15:40.460Z,74.09
2023-01-28T06:18:37.835Z,74.88
2023-01-28T06:21:05.580Z,75.25
2023-01-28T06:23:33.418Z,75.40
2023-01-28T06:26:00.869Z,75.30
2023-01-28T06:28:28.310Z,74.64
2023-01-28T06:30:55.648Z,75.41
2023-01-28T06:33:24.227Z,75.11
2023-01-28T06:35:51.610Z,74.64
2023-01-28T06:38:19.052Z,75.53
2023-01-28T06:40:52.223Z,75.37
2023-01-28T06:43:19.590Z,74.00
2023-01-28T06:45:47.560Z,74.21
2023-01-28T06:48:14.840Z,74.38
2023-01-28T06:50:42.181Z,74.91
2023-01-28T06:53:09.594Z,75.04
2023-01-28T06:55:37.186Z,74.71
2023-01-28T06:58:04.434Z,75.11
2023-01-28T07:00:31.737Z,74.32
2023-01-28T07:02:59.188Z,75.41
2023-01-28T07:05:26.731Z,75.12
2023-01-28T07:07:54.264Z,75.84
2023-01-28T07:10:21.706Z,75.37
2023-01-28T07:12:49.108Z,75.40
2023-01-28T07:15:17.950Z,74.50
2023-01-28T07:17:45.544Z,74.32
2023-01-28T07:20:15.467Z,74.47
2023-01-28T07:22:44.142Z,74.39
2023-01-28T07:25:13.104Z,74.46
2023-01-28T07:27:45.386Z,73.51
2023-01-28T07:30:13.406Z,73.33
2023-01-28T07:32:40.776Z,72.74
2023-01-28T07:35:08.652Z,72.51
2023-01-28T07:37:36.095Z,73.29
2023-01-28T07:40:03.552Z,72.89
2023-01-28T07:42:31.108Z,73.21
2023-01-28T07:45:05.119Z,73.48
2023-01-28T07:47:32.801Z,73.45
2023-01-28T07:50:00.389Z,73.33
2023-01-28T07:52:27.619Z,74.14
2023-01-28T07:54:54.871Z,73.77
2023-01-28T07:57:25.025Z,73.40
2023-01-28T07:59:52.413Z,73.51
2023-01-28T08:02:19.605Z,73.41
2023-01-28T08:04:47.041Z,73.45
2023-01-28T08:07:14.492Z,73.33
2023-01-28T08:09:41.852Z,73.09
2023-01-28T08:12:09.161Z,72.82
2023-01-28T08:14:36.948Z,72.85
2023-01-28T08:17:04.205Z,72.71
2023-01-28T08:19:31.453Z,73.42
2023-01-28T08:21:58.869Z,72.63
2023-01-28T08:24:26.403Z,72.58
2023-01-28T08:26:53.770Z,72.70
2023-01-28T08:29:21.067Z,72.17
2023-01-28T08:31:48.377Z,71.70
2023-01-28T08:34:15.665Z,71.56
2023-01-28T08:36:43.152Z,70.36
2023-01-28T08:39:10.534Z,70.15
2023-01-28T08:41:37.976Z,69.51
2023-01-28T08:44:05.384Z,68.27
2023-01-28T08:46:32.940Z,67.47
2023-01-28T08:49:00.400Z,68.22
2023-01-28T08:51:27.702Z,68.54
2023-01-28T08:53:55.055Z,68.06
2023-01-28T08:56:22.444Z,67.57
2023-01-28T08:58:49.789Z,67.22
2023-01-28T09:01:17.498Z,67.71
2023-01-28T09:03:44.787Z,67.61
2023-01-28T09:06:12.315Z,67.42
2023-01-28T09:08:39.623Z,67.34
2023-01-28T09:11:06.990Z,67.74
2023-01-28T09:13:34.498Z,67.35
2023-01-28T09:16:05.266Z,67.33
2023-01-28T09:18:32.638Z,66.77
2023-01-28T09:20:59.924Z,67.09
2023-01-28T09:23:27.298Z,66.48
2023-01-28T09:26:01.269Z,67.33
2023-01-28T09:28:30.087Z,66.60
2023-01-28T09:31:05.711Z,66.53
2023-01-28T09:33:33.315Z,67.74
2023-01-28T09:36:01.805Z,67.33
2023-01-28T09:38:31.287Z,66.72
2023-01-28T09:40:59.347Z,67.98
2023-01-28T09:43:45.305Z,67.73
2023-01-28T09:46:15.134Z,67.25
2023-01-28T09:48:48.705Z,68.13
2023-01-28T09:51:36.022Z,68.07
2023-01-28T09:54:16.422Z,67.88
2023-01-28T09:56:46.674Z,67.31
2023-01-28T09:59:20.644Z,68.15
2023-01-28T10:01:54.850Z,67.76
2023-01-28T10:04:53.376Z,66.52
2023-01-28T10:07:36.954Z,67.22
2023-01-28T10:10:12.739Z,67.29
2023-01-28T10:12:58.672Z,66.17
2023-01-28T10:16:04.001Z,66.59
2023-01-28T10:18:46.870Z,67.76
2023-01-28T10:21:19.289Z,68.35
2023-01-28T10:23:53.438Z,67.06
2023-01-28T10:26:24.216Z,67.13
2023-01-28T10:28:57.905Z,59.25
2023-01-28T10:31:32.416Z,55.39
2023-01-28T10:34:00.524Z,58.89
2023-01-28T10:36:27.803Z,62.34
2023-01-28T10:38:55.223Z,65.62
2023-01-28T10:41:23.351Z,65.78
2023-01-28T10:43:50.918Z,66.29
2023-01-28T10:46:25.387Z,67.08
2023-01-28T10:48:56.024Z,67.77
2023-01-28T10:51:35.397Z,68.78
2023-01-28T10:54:03.513Z,68.78
2023-01-28T10:56:32.271Z,69.20
2023-01-28T10:59:41.533Z,69.30
2023-01-28T11:02:24.334Z,68.59
2023-01-28T11:05:17.123Z,68.58
2023-01-28T11:07:45.077Z,68.90
2023-01-28T11:10:26.064Z,68.07
2023-01-28T11:12:57.607Z,68.19
2023-01-28T11:15:26.649Z,67.92
2023-01-28T11:17:59.804Z,68.50
2023-01-28T11:20:29.498Z,68.85
2023-01-28T11:22:57.681Z,68.99
2023-01-28T11:25:33.633Z,68.85
2023-01-28T11:28:03.859Z,67.69
2023-01-28T11:30:36.079Z,68.32
2023-01-28T11:33:06.135Z,68.67
2023-01-28T11:35:33.461Z,69.10
2023-01-28T11:38:01.061Z,68.84
2023-01-28T11:40:28.623Z,67.89
2023-01-28T11:43:00.557Z,67.99
2023-01-28T11:45:52.403Z,68.62
2023-01-28T11:48:38.824Z,68.32
2023-01-28T11:51:34.943Z,68.62
2023-01-28T11:54:27.277Z,68.85
2023-01-28T11:57:06.747Z,67.91
2023-01-28T12:00:06.822Z,67.39
2023-01-28T12:02:40.393Z,67.12
2023-01-28T12:05:17.413Z,67.09
2023-01-28T12:07:58.457Z,67.29
2023-01-28T12:10:31.661Z,66.73
2023-01-28T12:13:11.053Z,66.69
2023-01-28T12:15:57.513Z,67.35
2023-01-28T12:18:56.141Z,66.83
2023-01-28T12:21:43.767Z,66.80
2023-01-28T12:24:59.502Z,67.24
2023-01-28T12:27:59.246Z,66.90
2023-01-28T12:30:45.750Z,66.50
2023-01-28T12:33:42.385Z,66.97
2023-01-28T12:36:12.400Z,66.80
2023-01-28T12:38:53.269Z,66.60
2023-01-28T12:41:23.762Z,66.25
2023-01-28T12:44:09.554Z,65.87
2023-01-28T12:46:48.038Z,65.92
2023-01-28T12:49:23.916Z,66.62
2023-01-28T12:52:11.090Z,66.45
2023-01-28T12:54:43.955Z,66.18
2023-01-28T12:57:19.585Z,66.54
2023-01-28T12:59:50.255Z,65.53
2023-01-28T13:02:23.942Z,65.59
2023-01-28T13:05:08.603Z,65.25
2023-01-28T13:07:44.296Z,64.85
2023-01-28T13:10:20.856Z,64.40
2023-01-28T13:12:48.658Z,63.57
2023-01-28T13:15:18.399Z,64.06
2023-01-28T13:18:00.612Z,63.64
2023-01-28T13:20:51.521Z,63.42
2023-01-28T13:23:48.421Z,63.22
2023-01-28T13:26:18.657Z,63.21
2023-01-28T13:28:51.421Z,63.08
2023-01-28T13:31:21.761Z,63.62
2023-01-28T13:34:01.903Z,63.82
2023-01-28T13:36:30.100Z,64.05
2023-01-28T13:39:19.861Z,64.37
2023-01-28T13:41:49.501Z,64.49
2023-01-28T13:44:26.177Z,64.58
2023-01-28T13:46:55.950Z,64.06
2023-01-28T13:49:41.749Z,64.03
2023-01-28T13:52:12.218Z,63.82
2023-01-28T13:54:43.555Z,64.06
2023-01-28T13:57:32.056Z,64.56
2023-01-28T14:00:18.146Z,63.13
2023-01-28T14:03:11.277Z,62.37
2023-01-28T14:06:38.670Z,62.80
2023-01-28T14:09:34.008Z,62.24
2023-01-28T14:12:16.629Z,63.30
2023-01-28T14:15:17.468Z,63.07
2023-01-28T14:17:54.355Z,62.92
2023-01-28T14:20:39.592Z,61.48
2023-01-28T14:23:16.061Z,61.74
2023-01-28T14:26:03.627Z,61.54
2023-01-28T14:28:40.029Z,61.99
2023-01-28T14:31:11.329Z,61.70
2023-01-28T14:33:39.045Z,62.06
2023-01-28T14:36:07.097Z,61.81
2023-01-28T14:38:39.653Z,61.47
2023-01-28T14:41:07.883Z,61.54
2023-01-28T14:43:36.498Z,61.90
2023-01-28T14:46:22.982Z,61.36
2023-01-28T14:49:14.456Z,61.31
2023-01-28T14:52:26.298Z,61.43
2023-01-28T14:54:59.677Z,61.83
2023-01-28T14:57:51.158Z,61.52
2023-01-28T15:00:25.006Z,60.62
2023-01-28T15:02:52.414Z,60.19
2023-01-28T15:05:27.840Z,59.85
2023-01-28T15:07:56.117Z,60.25
2023-01-28T15:10:36.793Z,59.64
2023-01-28T15:13:08.351Z,58.65
2023-01-28T15:15:40.739Z,58.54
2023-01-28T15:18:19.578Z,58.99
2023-01-28T15:20:50.262Z,59.87
2023-01-28T15:23:20.533Z,60.18
2023-01-28T15:25:47.952Z,60.13
2023-01-28T15:28:24.407Z,59.25
2023-01-28T15:30:51.683Z,60.07
2023-01-28T15:33:21.616Z,60.24
2023-01-28T15:35:54.246Z,60.69
2023-01-28T15:38:22.330Z,60.71
2023-01-28T15:41:01.324Z,60.94
2023-01-28T15:43:30.817Z,60.50
2023-01-28T15:45:59.213Z,60.74
2023-01-28T15:48:29.355Z,60.78
2023-01-28T15:51:08.717Z,61.03
2023-01-28T15:53:47.124Z,60.41
2023-01-28T15:56:15.722Z,60.10
2023-01-28T15:58:43.607Z,59.41
2023-01-28T16:01:10.792Z,59.48
2023-01-28T16:03:40.072Z,59.64
2023-01-28T16:06:16.955Z,59.93
2023-01-28T16:08:53.335Z,59.95
2023-01-28T16:11:23.976Z,59.69
2023-01-28T16:13:51.417Z,60.19
2023-01-28T16:16:30.659Z,60.28
2023-01-28T16:18:58.618Z,60.50
2023-01-28T16:21:27.764Z,60.59
2023-01-28T16:24:02.362Z,61.19
2023-01-28T16:26:32.101Z,62.31
2023-01-28T16:29:01.681Z,61.96
2023-01-28T16:31:29.131Z,62.84
2023-01-28T16:33:56.391Z,62.57
2023-01-28T16:36:24.446Z,62.25
2023-01-28T16:38:51.784Z,62.53
2023-01-28T16:41:25.407Z,61.46
2023-01-28T16:43:53.337Z,61.37
2023-01-28T16:46:20.874Z,60.79
2023-01-28T16:48:48.379Z,61.06
2023-01-28T16:51:17.843Z,60.53
2023-01-28T16:53:49.043Z,60.54
2023-01-28T16:56:30.454Z,60.81
2023-01-28T16:59:05.602Z,60.86
2023-01-28T17:01:33.739Z,61.93
2023-01-28T17:04:01.125Z,62.40
2023-01-28T17:06:28.449Z,62.13
2023-01-28T17:08:55.661Z,61.39
2023-01-28T17:11:23.030Z,61.20
2023-01-28T17:13:50.361Z,60.80
2023-01-28T17:16:17.753Z,60.04
2023-01-28T17:18:46.889Z,60.34
2023-01-28T17:21:15.197Z,60.76
2023-01-28T17:23:42.585Z,60.79
2023-01-28T17:26:12.803Z,60.73
2023-01-28T17:28:40.469Z,61.21
2023-01-28T17:31:09.048Z,61.50
2023-01-28T17:33:36.353Z,60.88
2023-01-28T17:36:04.120Z,61.40
2023-01-28T17:38:31.618Z,61.67
2023-01-28T17:41:03.491Z,62.12
2023-01-28T17:43:31.425Z,61.15
2023-01-28T17:45:58.816Z,60.50
2023-01-28T17:48:26.359Z,60.28
2023-01-28T17:50:57.318Z,60.40
2023-01-28T17:53:24.774Z,61.07
2023-01-28T17:55:52.192Z,61.99
2023-01-28T17:58:20.483Z,61.84
2023-01-28T18:00:48.327Z,61.70
2023-01-28T18:03:16.243Z,62.03
2023-01-28T18:05:43.753Z,62.00
2023-01-28T18:08:11.074Z,62.32
2023-01-28T18:10:38.441Z,61.82
2023-01-28T18:13:05.702Z,61.92
2023-01-28T18:15:33.038Z,61.37
2023-01-28T18:18:00.819Z,61.75
2023-01-28T18:20:28.145Z,61.70
2023-01-28T18:22:55.541Z,60.81
2023-01-28T18:25:26.005Z,60.66
2023-01-28T18:27:53.354Z,60.63
2023-01-28T18:30:21.469Z,61.14
2023-01-28T18:32:48.826Z,61.10
2023-01-28T18:35:16.436Z,61.88
2023-01-28T18:37:43.967Z,62.20
2023-01-28T18:40:11.940Z,62.58
2023-01-28T18:42:39.276Z,62.62
2023-01-28T18:45:07.115Z,61.94
2023-01-28T18:47:34.573Z,61.66
2023-01-28T18:50:02.010Z,62.63
2023-01-28T18:52:29.469Z,63.02
2023-01-28T18:54:57.566Z,62.87
2023-01-28T18:57:24.856Z,63.01
2023-01-28T18:59:52.340Z,62.48
2023-01-28T19:02:19.698Z,62.00
2023-01-28T19:04:47.130Z,61.71
2023-01-28T19:07:14.584Z,61.06
2023-01-28T19:09:42.004Z,61.36
2023-01-28T19:12:09.395Z,62.47
2023-01-28T19:14:36.662Z,63.09
2023-01-28T19:17:04.071Z,63.18
2023-01-28T19:19:31.673Z,62.91
2023-01-28T19:21:59.015Z,62.75
2023-01-28T19:24:26.420Z,63.49
2023-01-28T19:26:54.142Z,63.24
2023-01-28T19:29:21.431Z,63.87
2023-01-28T19:31:49.428Z,63.75
2023-01-28T19:34:16.878Z,63.70
2023-01-28T19:36:44.833Z,63.43
2023-01-28T19:39:14.677Z,64.00
2023-01-28T19:41:42.025Z,64.48
2023-01-28T19:44:09.926Z,64.13
2023-01-28T19:46:37.416Z,64.45
2023-01-28T19:49:06.342Z,64.12
2023-01-28T19:51:33.794Z,63.79
2023-01-28T19:54:01.066Z,63.58
2023-01-28T19:56:29.929Z,63.63
2023-01-28T19:58:57.249Z,63.45
2023-01-28T20:01:29.689Z,63.66
2023-01-28T20:03:59.752Z,63.94
2023-01-28T20:06:28.708Z,63.53
2023-01-28T20:09:01.265Z,63.06
2023-01-28T20:11:28.611Z,62.72
2023-01-28T20:13:56.399Z,61.84
2023-01-28T20:16:26.126Z,62.97
2023-01-28T20:18:59.042Z,62.95
2023-01-28T20:21:27.376Z,62.20
2023-01-28T20:23:55.340Z,63.40
2023-01-28T20:26:24.924Z,63.54
2023-01-28T20:28:52.225Z,63.75
2023-01-28T20:31:20.583Z,62.78
2023-01-28T20:33:47.936Z,62.43
2023-01-28T20:36:15.611Z,63.05
2023-01-28T20:38:44.760Z,62.58
2023-01-28T20:41:15.414Z,63.06
2023-01-28T20:43:44.164Z,63.30
2023-01-28T20:46:13.249Z,63.25
2023-01-28T20:48:40.698Z,63.30
2023-01-28T20:51:12.187Z,63.23
2023-01-28T20:53:40.130Z,62.82
2023-01-28T20:56:08.195Z,63.08
2023-01-28T20:58:36.157Z,63.92
2023-01-28T21:01:04.348Z,64.03
2023-01-28T21:03:31.875Z,63.93
2023-01-28T21:05:59.162Z,64.52
2023-01-28T21:08:26.658Z,64.55
2023-01-28T21:10:55.081Z,64.05
2023-01-28T21:13:22.645Z,63.63
2023-01-28T21:15:54.713Z,63.84
2023-01-28T21:18:23.055Z,64.09
2023-01-28T21:20:51.090Z,63.75
2023-01-28T21:23:18.581Z,63.33
2023-01-28T21:25:47.135Z,62.82
2023-01-28T21:28:14.613Z,62.49
2023-01-28T21:30:42.243Z,63.00
2023-01-28T21:33:09.866Z,62.81
2023-01-28T21:35:42.403Z,61.91
2023-01-28T21:38:10.448Z,62.12
2023-01-28T21:40:38.686Z,62.27
2023-01-28T21:43:06.028Z,62.58
2023-01-28T21:45:33.312Z,62.01
2023-01-28T21:48:00.733Z,62.14
2023-01-28T21:50:28.020Z,62.01
2023-01-28T21:52:55.159Z,62.14
2023-01-28T21:55:22.583Z,62.43
2023-01-28T21:58:09.929Z,62.25
2023-01-28T22:00:37.724Z,62.77
2023-01-28T22:03:05.041Z,61.51
2023-01-28T22:05:32.519Z,61.61
2023-01-28T22:07:59.736Z,60.96
2023-01-28T22:10:27.026Z,61.31
2023-01-28T22:12:54.290Z,61.35
2023-01-28T22:15:21.740Z,61.36
2023-01-28T22:17:49.497Z,61.14
2023-01-28T22:20:17.320Z,61.55
2023-01-28T22:22:44.811Z,62.13
2023-01-28T22:25:12.271Z,62.41
2023-01-28T22:27:39.695Z,62.21
2023-01-28T22:30:07.586Z,62.19
2023-01-28T22:32:34.948Z,61.83
2023-01-28T22:35:04.703Z,62.39
2023-01-28T22:37:32.080Z,61.53
2023-01-28T22:39:59.469Z,62.12
2023-01-28T22:42:26.793Z,62.31
2023-01-28T22:44:55.507Z,62.63
2023-01-28T22:47:22.858Z,63.88
2023-01-28T22:49:50.151Z,63.01
2023-01-28T22:52:17.477Z,62.51
2023-01-28T22:54:44.789Z,62.58
2023-01-28T22:57:12.062Z,62.75
2023-01-28T22:59:41.910Z,62.87
2023-01-28T23:02:10.924Z,62.67
2023-01-28T23:04:38.195Z,62.13
2023-01-28T23:07:05.435Z,62.13
2023-01-28T23:09:33.735Z,62.21
2023-01-28T23:12:01.021Z,61.82
2023-01-28T23:14:47.159Z,61.66
2023-01-28T23:17:33.035Z,61.54
2023-01-28T23:20:18.865Z,62.03
2023-01-28T23:23:05.333Z,62.10
2023-01-28T23:25:32.650Z,62.22
2023-01-28T23:28:01.240Z,63.30
2023-01-28T23:30:28.571Z,63.25
2023-01-28T23:32:57.677Z,63.14
2023-01-28T23:35:28.250Z,62.41
2023-01-28T23:37:56.601Z,61.92
2023-01-28T23:40:24.602Z,62.14
2023-01-28T23:42:52.504Z,62.31
2023-01-28T23:45:20.768Z,62.08
2023-01-28T23:47:48.612Z,62.51
2023-01-28T23:50:17.674Z,62.90
2023-01-28T23:52:45.200Z,62.45
2023-01-28T23:55:12.454Z,62.53
2023-01-28T23:57:39.655Z,62.97
